sensor_id;sensor_type;location;lat;lon;timestamp;temperature;humidity
6672;DHT22;3372;48.690;12.362;2022-12-26T00:00:27;9.20;77.60
6672;DHT22;3372;48.690;12.362;2022-12-26T00:02:53;9.30;77.40
6672;DHT22;3372;48.690;12.362;2022-12-26T00:05:18;9.20;77.20
6672;DHT22;3372;48.690;12.362;2022-12-26T00:07:44;9.30;77.20
6672;DHT22;3372;48.690;12.362;2022-12-26T00:10:10;9.30;77.60
6672;DHT22;3372;48.690;12.362;2022-12-26T00:12:35;9.30;77.10
6672;DHT22;3372;48.690;12.362;2022-12-26T00:15:01;9.30;77.00
6672;DHT22;3372;48.690;12.362;2022-12-26T00:17:26;9.30;77.20
6672;DHT22;3372;48.690;12.362;2022-12-26T00:19:52;9.30;77.00
6672;DHT22;3372;48.690;12.362;2022-12-26T00:22:17;9.30;77.50
6672;DHT22;3372;48.690;12.362;2022-12-26T00:24:44;9.30;77.50
6672;DHT22;3372;48.690;12.362;2022-12-26T00:27:11;9.40;77.20
6672;DHT22;3372;48.690;12.362;2022-12-26T00:29:36;9.30;77.30
6672;DHT22;3372;48.690;12.362;2022-12-26T00:32:02;9.30;77.20
6672;DHT22;3372;48.690;12.362;2022-12-26T00:34:28;9.40;77.10
6672;DHT22;3372;48.690;12.362;2022-12-26T00:36:53;9.40;77.20
6672;DHT22;3372;48.690;12.362;2022-12-26T00:39:19;9.30;77.80
6672;DHT22;3372;48.690;12.362;2022-12-26T00:41:44;9.40;77.60
6672;DHT22;3372;48.690;12.362;2022-12-26T00:44:10;9.50;77.90
6672;DHT22;3372;48.690;12.362;2022-12-26T00:46:35;9.50;78.20
6672;DHT22;3372;48.690;12.362;2022-12-26T00:49:01;9.60;77.50
6672;DHT22;3372;48.690;12.362;2022-12-26T00:51:26;9.60;77.80
6672;DHT22;3372;48.690;12.362;2022-12-26T00:53:52;9.60;77.40
6672;DHT22;3372;48.690;12.362;2022-12-26T00:56:18;9.60;77.80
6672;DHT22;3372;48.690;12.362;2022-12-26T00:58:43;9.60;77.60
6672;DHT22;3372;48.690;12.362;2022-12-26T01:01:15;9.60;77.60
6672;DHT22;3372;48.690;12.362;2022-12-26T01:03:42;9.70;77.40
6672;DHT22;3372;48.690;12.362;2022-12-26T01:06:08;9.70;77.40
6672;DHT22;3372;48.690;12.362;2022-12-26T01:08:34;9.70;77.40
6672;DHT22;3372;48.690;12.362;2022-12-26T01:11:08;9.70;77.40
6672;DHT22;3372;48.690;12.362;2022-12-26T01:13:35;9.70;77.20
6672;DHT22;3372;48.690;12.362;2022-12-26T01:16:01;9.70;77.20
6672;DHT22;3372;48.690;12.362;2022-12-26T01:18:27;9.80;77.50
6672;DHT22;3372;48.690;12.362;2022-12-26T01:21:07;9.80;76.60
6672;DHT22;3372;48.690;12.362;2022-12-26T01:23:33;9.90;76.50
6672;DHT22;3372;48.690;12.362;2022-12-26T01:25:59;9.90;76.10
6672;DHT22;3372;48.690;12.362;2022-12-26T01:28:24;9.90;76.30
6672;DHT22;3372;48.690;12.362;2022-12-26T01:30:50;9.90;76.30
6672;DHT22;3372;48.690;12.362;2022-12-26T01:33:15;9.90;76.10
6672;DHT22;3372;48.690;12.362;2022-12-26T01:35:51;9.90;75.90
6672;DHT22;3372;48.690;12.362;2022-12-26T01:38:17;10.00;75.20
6672;DHT22;3372;48.690;12.362;2022-12-26T01:40:43;10.00;75.10
6672;DHT22;3372;48.690;12.362;2022-12-26T01:43:11;10.00;74.70
6672;DHT22;3372;48.690;12.362;2022-12-26T01:45:37;10.00;74.80
6672;DHT22;3372;48.690;12.362;2022-12-26T01:48:15;10.00;74.70
6672;DHT22;3372;48.690;12.362;2022-12-26T01:51:00;9.90;75.10
6672;DHT22;3372;48.690;12.362;2022-12-26T01:53:30;9.90;73.90
6672;DHT22;3372;48.690;12.362;2022-12-26T01:56:01;9.90;73.70
6672;DHT22;3372;48.690;12.362;2022-12-26T01:58:34;9.80;73.60
6672;DHT22;3372;48.690;12.362;2022-12-26T02:01:04;9.80;73.20
6672;DHT22;3372;48.690;12.362;2022-12-26T02:03:31;9.80;73.10
6672;DHT22;3372;48.690;12.362;2022-12-26T02:06:16;9.80;72.20
6672;DHT22;3372;48.690;12.362;2022-12-26T02:08:43;9.80;72.60
6672;DHT22;3372;48.690;12.362;2022-12-26T02:11:13;9.80;72.10
6672;DHT22;3372;48.690;12.362;2022-12-26T02:13:40;9.70;71.50
6672;DHT22;3372;48.690;12.362;2022-12-26T02:16:09;9.70;71.50
6672;DHT22;3372;48.690;12.362;2022-12-26T02:18:36;9.70;72.20
6672;DHT22;3372;48.690;12.362;2022-12-26T02:21:20;9.70;72.80
6672;DHT22;3372;48.690;12.362;2022-12-26T02:35:02;9.70;74.40
6672;DHT22;3372;48.690;12.362;2022-12-26T02:45:45;9.90;74.50
6672;DHT22;3372;48.690;12.362;2022-12-26T02:48:57;9.90;73.90
6672;DHT22;3372;48.690;12.362;2022-12-26T02:52:11;9.80;73.80
6672;DHT22;3372;48.690;12.362;2022-12-26T02:55:06;9.80;74.00
6672;DHT22;3372;48.690;12.362;2022-12-26T03:01:32;9.60;73.00
6672;DHT22;3372;48.690;12.362;2022-12-26T03:04:18;9.60;73.30
6672;DHT22;3372;48.690;12.362;2022-12-26T03:07:12;9.60;73.20
6672;DHT22;3372;48.690;12.362;2022-12-26T03:10:00;9.60;73.20
6672;DHT22;3372;48.690;12.362;2022-12-26T03:12:56;9.60;73.30
6672;DHT22;3372;48.690;12.362;2022-12-26T03:15:43;9.60;72.70
6672;DHT22;3372;48.690;12.362;2022-12-26T03:18:29;9.60;73.30
6672;DHT22;3372;48.690;12.362;2022-12-26T03:20:56;9.60;73.20
6672;DHT22;3372;48.690;12.362;2022-12-26T03:23:23;9.60;73.10
6672;DHT22;3372;48.690;12.362;2022-12-26T03:25:50;9.60;73.20
6672;DHT22;3372;48.690;12.362;2022-12-26T03:28:36;9.60;73.10
6672;DHT22;3372;48.690;12.362;2022-12-26T03:31:05;9.60;72.80
6672;DHT22;3372;48.690;12.362;2022-12-26T03:33:33;9.60;72.90
6672;DHT22;3372;48.690;12.362;2022-12-26T03:36:54;9.60;72.90
6672;DHT22;3372;48.690;12.362;2022-12-26T03:42:33;9.60;72.10
6672;DHT22;3372;48.690;12.362;2022-12-26T03:45:44;9.60;72.00
6672;DHT22;3372;48.690;12.362;2022-12-26T03:52:19;9.70;72.60
6672;DHT22;3372;48.690;12.362;2022-12-26T04:00:54;9.80;71.60
6672;DHT22;3372;48.690;12.362;2022-12-26T04:03:41;9.80;71.50
6672;DHT22;3372;48.690;12.362;2022-12-26T04:06:37;9.80;70.30
6672;DHT22;3372;48.690;12.362;2022-12-26T04:09:29;9.80;70.80
6672;DHT22;3372;48.690;12.362;2022-12-26T04:12:18;9.90;70.50
6672;DHT22;3372;48.690;12.362;2022-12-26T04:15:15;9.90;69.60
6672;DHT22;3372;48.690;12.362;2022-12-26T04:18:16;9.90;69.30
6672;DHT22;3372;48.690;12.362;2022-12-26T04:21:20;9.80;68.70
6672;DHT22;3372;48.690;12.362;2022-12-26T04:24:24;9.80;69.30
6672;DHT22;3372;48.690;12.362;2022-12-26T04:27:12;9.90;69.20
6672;DHT22;3372;48.690;12.362;2022-12-26T04:29:57;9.90;68.50
6672;DHT22;3372;48.690;12.362;2022-12-26T04:32:44;9.90;68.50
6672;DHT22;3372;48.690;12.362;2022-12-26T04:35:43;9.90;68.10
6672;DHT22;3372;48.690;12.362;2022-12-26T04:38:30;9.90;67.30
6672;DHT22;3372;48.690;12.362;2022-12-26T04:41:18;9.90;67.00
6672;DHT22;3372;48.690;12.362;2022-12-26T04:44:04;9.90;66.60
6672;DHT22;3372;48.690;12.362;2022-12-26T04:46:46;9.90;66.30
6672;DHT22;3372;48.690;12.362;2022-12-26T04:49:14;10.00;65.10
6672;DHT22;3372;48.690;12.362;2022-12-26T04:51:59;10.00;64.70
6672;DHT22;3372;48.690;12.362;2022-12-26T04:54:26;10.00;64.80
6672;DHT22;3372;48.690;12.362;2022-12-26T04:56:52;10.00;64.50
6672;DHT22;3372;48.690;12.362;2022-12-26T04:59:18;10.10;64.40
6672;DHT22;3372;48.690;12.362;2022-12-26T05:01:44;10.10;63.60
6672;DHT22;3372;48.690;12.362;2022-12-26T05:04:28;10.10;63.50
6672;DHT22;3372;48.690;12.362;2022-12-26T05:07:19;10.10;63.50
6672;DHT22;3372;48.690;12.362;2022-12-26T05:10:06;10.10;62.50
6672;DHT22;3372;48.690;12.362;2022-12-26T05:12:33;10.00;62.30
6672;DHT22;3372;48.690;12.362;2022-12-26T05:14:58;10.10;62.10
6672;DHT22;3372;48.690;12.362;2022-12-26T05:17:24;10.10;61.20
6672;DHT22;3372;48.690;12.362;2022-12-26T05:20:10;10.10;60.80
6672;DHT22;3372;48.690;12.362;2022-12-26T05:22:55;10.10;61.00
6672;DHT22;3372;48.690;12.362;2022-12-26T05:25:41;10.10;60.80
6672;DHT22;3372;48.690;12.362;2022-12-26T05:28:26;10.10;61.00
6672;DHT22;3372;48.690;12.362;2022-12-26T05:31:13;10.00;60.10
6672;DHT22;3372;48.690;12.362;2022-12-26T05:33:39;10.00;59.80
6672;DHT22;3372;48.690;12.362;2022-12-26T05:36:25;10.10;60.20
6672;DHT22;3372;48.690;12.362;2022-12-26T05:38:52;10.10;59.10
6672;DHT22;3372;48.690;12.362;2022-12-26T05:41:17;10.10;59.50
6672;DHT22;3372;48.690;12.362;2022-12-26T05:43:43;10.10;59.70
6672;DHT22;3372;48.690;12.362;2022-12-26T05:46:08;10.00;58.10
6672;DHT22;3372;48.690;12.362;2022-12-26T05:48:34;10.10;57.90
6672;DHT22;3372;48.690;12.362;2022-12-26T05:51:01;10.00;57.80
6672;DHT22;3372;48.690;12.362;2022-12-26T05:53:27;10.00;58.30
6672;DHT22;3372;48.690;12.362;2022-12-26T05:55:53;10.00;58.50
6672;DHT22;3372;48.690;12.362;2022-12-26T05:58:19;10.00;58.90
6672;DHT22;3372;48.690;12.362;2022-12-26T06:00:45;10.00;58.90
6672;DHT22;3372;48.690;12.362;2022-12-26T06:03:10;10.00;59.20
6672;DHT22;3372;48.690;12.362;2022-12-26T06:05:36;10.00;57.60
6672;DHT22;3372;48.690;12.362;2022-12-26T06:08:02;10.00;58.60
6672;DHT22;3372;48.690;12.362;2022-12-26T06:10:27;10.00;58.50
6672;DHT22;3372;48.690;12.362;2022-12-26T06:12:58;10.10;58.90
6672;DHT22;3372;48.690;12.362;2022-12-26T06:15:23;10.10;58.90
6672;DHT22;3372;48.690;12.362;2022-12-26T06:17:49;10.10;58.00
6672;DHT22;3372;48.690;12.362;2022-12-26T06:20:15;10.00;58.40
6672;DHT22;3372;48.690;12.362;2022-12-26T06:22:40;10.00;58.70
6672;DHT22;3372;48.690;12.362;2022-12-26T06:25:06;10.00;58.70
6672;DHT22;3372;48.690;12.362;2022-12-26T06:27:32;10.00;59.00
6672;DHT22;3372;48.690;12.362;2022-12-26T06:29:57;9.90;59.30
6672;DHT22;3372;48.690;12.362;2022-12-26T06:32:23;9.90;59.40
6672;DHT22;3372;48.690;12.362;2022-12-26T06:34:48;10.00;58.60
6672;DHT22;3372;48.690;12.362;2022-12-26T06:37:14;9.90;59.50
6672;DHT22;3372;48.690;12.362;2022-12-26T06:39:39;9.90;60.00
6672;DHT22;3372;48.690;12.362;2022-12-26T06:42:05;9.90;59.60
6672;DHT22;3372;48.690;12.362;2022-12-26T06:44:30;9.90;59.50
6672;DHT22;3372;48.690;12.362;2022-12-26T06:46:56;9.90;59.10
6672;DHT22;3372;48.690;12.362;2022-12-26T06:49:22;9.90;59.30
6672;DHT22;3372;48.690;12.362;2022-12-26T06:51:50;9.90;60.60
6672;DHT22;3372;48.690;12.362;2022-12-26T06:54:16;10.00;59.10
6672;DHT22;3372;48.690;12.362;2022-12-26T06:56:41;9.90;60.50
6672;DHT22;3372;48.690;12.362;2022-12-26T06:59:09;10.00;58.90
6672;DHT22;3372;48.690;12.362;2022-12-26T07:01:35;9.90;59.70
6672;DHT22;3372;48.690;12.362;2022-12-26T07:04:01;9.90;59.30
6672;DHT22;3372;48.690;12.362;2022-12-26T07:06:37;9.90;59.00
6672;DHT22;3372;48.690;12.362;2022-12-26T07:09:06;9.80;58.50
6672;DHT22;3372;48.690;12.362;2022-12-26T07:11:35;9.80;58.40
6672;DHT22;3372;48.690;12.362;2022-12-26T07:14:01;9.80;58.40
6672;DHT22;3372;48.690;12.362;2022-12-26T07:16:26;9.90;58.50
6672;DHT22;3372;48.690;12.362;2022-12-26T07:18:53;10.00;56.40
6672;DHT22;3372;48.690;12.362;2022-12-26T07:21:18;10.00;56.10
6672;DHT22;3372;48.690;12.362;2022-12-26T07:23:44;10.00;56.80
6672;DHT22;3372;48.690;12.362;2022-12-26T07:26:09;10.10;56.30
6672;DHT22;3372;48.690;12.362;2022-12-26T07:28:35;10.10;55.40
6672;DHT22;3372;48.690;12.362;2022-12-26T07:31:01;10.20;56.30
6672;DHT22;3372;48.690;12.362;2022-12-26T07:33:28;10.20;55.80
6672;DHT22;3372;48.690;12.362;2022-12-26T07:36:04;10.30;55.90
6672;DHT22;3372;48.690;12.362;2022-12-26T07:38:31;10.30;55.60
6672;DHT22;3372;48.690;12.362;2022-12-26T07:40:57;10.30;55.00
6672;DHT22;3372;48.690;12.362;2022-12-26T07:43:24;10.30;54.70
6672;DHT22;3372;48.690;12.362;2022-12-26T07:45:50;10.40;55.40
6672;DHT22;3372;48.690;12.362;2022-12-26T07:48:16;10.30;55.40
6672;DHT22;3372;48.690;12.362;2022-12-26T07:50:42;10.30;55.10
6672;DHT22;3372;48.690;12.362;2022-12-26T07:53:12;10.40;54.80
6672;DHT22;3372;48.690;12.362;2022-12-26T07:55:38;10.40;55.00
6672;DHT22;3372;48.690;12.362;2022-12-26T07:58:03;10.40;54.70
6672;DHT22;3372;48.690;12.362;2022-12-26T08:00:29;10.40;54.60
6672;DHT22;3372;48.690;12.362;2022-12-26T08:02:54;10.30;55.20
6672;DHT22;3372;48.690;12.362;2022-12-26T08:05:20;10.40;54.70
6672;DHT22;3372;48.690;12.362;2022-12-26T08:07:47;10.40;54.90
6672;DHT22;3372;48.690;12.362;2022-12-26T08:10:13;10.40;53.10
6672;DHT22;3372;48.690;12.362;2022-12-26T08:12:39;10.50;54.40
6672;DHT22;3372;48.690;12.362;2022-12-26T08:15:05;10.60;53.00
6672;DHT22;3372;48.690;12.362;2022-12-26T08:17:30;10.70;52.50
6672;DHT22;3372;48.690;12.362;2022-12-26T08:19:57;10.70;52.80
6672;DHT22;3372;48.690;12.362;2022-12-26T08:22:23;10.80;53.50
6672;DHT22;3372;48.690;12.362;2022-12-26T08:24:48;10.70;52.50
6672;DHT22;3372;48.690;12.362;2022-12-26T08:27:14;10.80;54.30
6672;DHT22;3372;48.690;12.362;2022-12-26T08:29:40;10.90;54.00
6672;DHT22;3372;48.690;12.362;2022-12-26T08:32:05;11.00;53.90
6672;DHT22;3372;48.690;12.362;2022-12-26T08:34:33;11.10;54.10
6672;DHT22;3372;48.690;12.362;2022-12-26T08:36:59;11.20;54.50
6672;DHT22;3372;48.690;12.362;2022-12-26T08:39:24;11.20;53.70
6672;DHT22;3372;48.690;12.362;2022-12-26T08:41:50;11.50;53.00
6672;DHT22;3372;48.690;12.362;2022-12-26T08:44:16;11.70;53.10
6672;DHT22;3372;48.690;12.362;2022-12-26T08:46:42;11.90;51.30
6672;DHT22;3372;48.690;12.362;2022-12-26T08:49:08;11.80;51.00
6672;DHT22;3372;48.690;12.362;2022-12-26T08:51:33;11.90;51.10
6672;DHT22;3372;48.690;12.362;2022-12-26T08:53:59;11.90;51.50
6672;DHT22;3372;48.690;12.362;2022-12-26T08:56:25;11.90;51.10
6672;DHT22;3372;48.690;12.362;2022-12-26T08:58:51;12.00;51.30
6672;DHT22;3372;48.690;12.362;2022-12-26T09:01:24;12.00;51.30
6672;DHT22;3372;48.690;12.362;2022-12-26T09:03:55;11.90;51.10
6672;DHT22;3372;48.690;12.362;2022-12-26T09:06:21;12.00;51.00
6672;DHT22;3372;48.690;12.362;2022-12-26T09:08:47;12.00;51.30
6672;DHT22;3372;48.690;12.362;2022-12-26T09:11:15;12.00;51.20
6672;DHT22;3372;48.690;12.362;2022-12-26T09:13:42;12.00;49.90
6672;DHT22;3372;48.690;12.362;2022-12-26T09:16:20;12.00;50.60
6672;DHT22;3372;48.690;12.362;2022-12-26T09:18:47;12.00;49.90
6672;DHT22;3372;48.690;12.362;2022-12-26T09:21:16;12.00;51.50
6672;DHT22;3372;48.690;12.362;2022-12-26T09:23:42;12.00;50.90
6672;DHT22;3372;48.690;12.362;2022-12-26T09:26:13;12.00;52.20
6672;DHT22;3372;48.690;12.362;2022-12-26T09:28:39;12.10;52.00
6672;DHT22;3372;48.690;12.362;2022-12-26T09:31:26;12.20;51.30
6672;DHT22;3372;48.690;12.362;2022-12-26T09:33:52;12.20;48.90
6672;DHT22;3372;48.690;12.362;2022-12-26T09:36:23;12.30;50.90
6672;DHT22;3372;48.690;12.362;2022-12-26T09:38:49;12.30;50.50
6672;DHT22;3372;48.690;12.362;2022-12-26T09:49:36;12.40;50.00
6672;DHT22;3372;48.690;12.362;2022-12-26T09:52:11;12.50;49.70
6672;DHT22;3372;48.690;12.362;2022-12-26T09:54:46;12.50;47.50
6672;DHT22;3372;48.690;12.362;2022-12-26T09:57:16;12.60;47.50
6672;DHT22;3372;48.690;12.362;2022-12-26T09:59:56;12.60;47.70
6672;DHT22;3372;48.690;12.362;2022-12-26T10:02:23;12.70;48.10
6672;DHT22;3372;48.690;12.362;2022-12-26T10:04:51;12.60;46.30
6672;DHT22;3372;48.690;12.362;2022-12-26T10:07:22;12.60;45.80
6672;DHT22;3372;48.690;12.362;2022-12-26T10:12:39;12.50;47.20
6672;DHT22;3372;48.690;12.362;2022-12-26T10:21:02;12.70;46.50
6672;DHT22;3372;48.690;12.362;2022-12-26T10:23:41;12.70;45.60
6672;DHT22;3372;48.690;12.362;2022-12-26T10:26:16;12.70;48.00
6672;DHT22;3372;48.690;12.362;2022-12-26T10:34:39;12.80;47.70
6672;DHT22;3372;48.690;12.362;2022-12-26T10:39:57;12.70;46.30
6672;DHT22;3372;48.690;12.362;2022-12-26T10:42:39;12.80;48.60
6672;DHT22;3372;48.690;12.362;2022-12-26T10:45:40;12.90;45.90
6672;DHT22;3372;48.690;12.362;2022-12-26T10:48:07;12.90;46.70
6672;DHT22;3372;48.690;12.362;2022-12-26T10:50:37;12.90;47.70
6672;DHT22;3372;48.690;12.362;2022-12-26T10:53:06;12.90;47.60
6672;DHT22;3372;48.690;12.362;2022-12-26T10:55:33;12.90;46.50
6672;DHT22;3372;48.690;12.362;2022-12-26T10:58:03;12.90;47.20
6672;DHT22;3372;48.690;12.362;2022-12-26T11:00:29;13.00;47.90
6672;DHT22;3372;48.690;12.362;2022-12-26T11:03:10;12.80;46.30
6672;DHT22;3372;48.690;12.362;2022-12-26T11:05:40;12.90;46.90
6672;DHT22;3372;48.690;12.362;2022-12-26T11:08:17;12.90;47.20
6672;DHT22;3372;48.690;12.362;2022-12-26T11:10:59;12.90;47.20
6672;DHT22;3372;48.690;12.362;2022-12-26T11:13:26;12.80;45.60
6672;DHT22;3372;48.690;12.362;2022-12-26T11:15:52;12.90;46.50
6672;DHT22;3372;48.690;12.362;2022-12-26T11:18:36;13.00;47.50
6672;DHT22;3372;48.690;12.362;2022-12-26T11:21:29;13.10;45.70
6672;DHT22;3372;48.690;12.362;2022-12-26T11:26:34;13.10;46.60
6672;DHT22;3372;48.690;12.362;2022-12-26T11:31:38;13.00;47.20
6672;DHT22;3372;48.690;12.362;2022-12-26T11:34:09;13.00;47.90
6672;DHT22;3372;48.690;12.362;2022-12-26T11:36:36;13.10;48.60
6672;DHT22;3372;48.690;12.362;2022-12-26T11:39:15;13.10;48.80
6672;DHT22;3372;48.690;12.362;2022-12-26T11:41:43;13.10;49.50
6672;DHT22;3372;48.690;12.362;2022-12-26T11:49:30;13.10;49.90
6672;DHT22;3372;48.690;12.362;2022-12-26T11:52:00;13.10;48.90
6672;DHT22;3372;48.690;12.362;2022-12-26T11:54:35;13.20;50.50
6672;DHT22;3372;48.690;12.362;2022-12-26T11:57:31;13.20;49.70
6672;DHT22;3372;48.690;12.362;2022-12-26T12:00:18;13.20;49.10
6672;DHT22;3372;48.690;12.362;2022-12-26T12:02:44;13.20;48.70
6672;DHT22;3372;48.690;12.362;2022-12-26T12:16:08;13.10;49.40
6672;DHT22;3372;48.690;12.362;2022-12-26T12:19:03;13.10;50.20
6672;DHT22;3372;48.690;12.362;2022-12-26T12:21:53;13.10;51.60
6672;DHT22;3372;48.690;12.362;2022-12-26T12:29:34;13.00;59.00
6672;DHT22;3372;48.690;12.362;2022-12-26T12:32:21;12.90;62.90
6672;DHT22;3372;48.690;12.362;2022-12-26T12:37:48;12.90;65.00
6672;DHT22;3372;48.690;12.362;2022-12-26T12:40:36;12.90;67.10
6672;DHT22;3372;48.690;12.362;2022-12-26T12:46:24;12.70;71.20
6672;DHT22;3372;48.690;12.362;2022-12-26T12:49:08;12.60;72.10
6672;DHT22;3372;48.690;12.362;2022-12-26T12:51:49;12.60;75.60
6672;DHT22;3372;48.690;12.362;2022-12-26T12:54:34;12.60;75.20
6672;DHT22;3372;48.690;12.362;2022-12-26T12:57:12;12.60;75.80
6672;DHT22;3372;48.690;12.362;2022-12-26T13:02:39;12.60;77.00
6672;DHT22;3372;48.690;12.362;2022-12-26T13:08:02;12.70;75.20
6672;DHT22;3372;48.690;12.362;2022-12-26T13:10:34;12.60;75.00
6672;DHT22;3372;48.690;12.362;2022-12-26T13:13:32;12.60;74.80
6672;DHT22;3372;48.690;12.362;2022-12-26T13:16:06;12.50;75.00
6672;DHT22;3372;48.690;12.362;2022-12-26T13:18:38;12.50;74.20
6672;DHT22;3372;48.690;12.362;2022-12-26T13:21:09;12.60;74.10
6672;DHT22;3372;48.690;12.362;2022-12-26T13:23:40;12.50;73.80
6672;DHT22;3372;48.690;12.362;2022-12-26T13:26:28;12.50;73.90
6672;DHT22;3372;48.690;12.362;2022-12-26T13:29:23;12.50;73.70
6672;DHT22;3372;48.690;12.362;2022-12-26T13:31:53;12.50;74.50
6672;DHT22;3372;48.690;12.362;2022-12-26T13:34:19;12.50;74.10
6672;DHT22;3372;48.690;12.362;2022-12-26T13:36:50;12.50;73.30
6672;DHT22;3372;48.690;12.362;2022-12-26T13:41:55;12.40;74.30
6672;DHT22;3372;48.690;12.362;2022-12-26T13:44:40;12.40;74.70
6672;DHT22;3372;48.690;12.362;2022-12-26T13:47:36;12.30;75.30
6672;DHT22;3372;48.690;12.362;2022-12-26T14:04:34;12.30;74.40
6672;DHT22;3372;48.690;12.362;2022-12-26T14:10:05;12.20;75.00
6672;DHT22;3372;48.690;12.362;2022-12-26T14:15:49;12.00;75.40
6672;DHT22;3372;48.690;12.362;2022-12-26T14:18:29;12.00;75.10
6672;DHT22;3372;48.690;12.362;2022-12-26T14:29:29;12.00;75.60
6672;DHT22;3372;48.690;12.362;2022-12-26T14:32:33;12.00;75.00
6672;DHT22;3372;48.690;12.362;2022-12-26T14:37:56;11.80;75.90
6672;DHT22;3372;48.690;12.362;2022-12-26T14:40:30;11.90;75.80
6672;DHT22;3372;48.690;12.362;2022-12-26T14:45:56;11.80;75.20
6672;DHT22;3372;48.690;12.362;2022-12-26T14:55:51;11.90;74.40
6672;DHT22;3372;48.690;12.362;2022-12-26T15:00:55;11.90;74.90
6672;DHT22;3372;48.690;12.362;2022-12-26T15:09:36;11.90;74.40
6672;DHT22;3372;48.690;12.362;2022-12-26T15:12:46;11.80;75.10
6672;DHT22;3372;48.690;12.362;2022-12-26T15:15:46;11.80;75.10
6672;DHT22;3372;48.690;12.362;2022-12-26T15:18:49;11.80;75.70
6672;DHT22;3372;48.690;12.362;2022-12-26T15:27:25;11.80;75.30
6672;DHT22;3372;48.690;12.362;2022-12-26T15:30:14;11.70;75.90
6672;DHT22;3372;48.690;12.362;2022-12-26T15:32:56;11.70;75.40
6672;DHT22;3372;48.690;12.362;2022-12-26T15:35:43;11.70;76.20
6672;DHT22;3372;48.690;12.362;2022-12-26T15:38:38;11.80;75.20
6672;DHT22;3372;48.690;12.362;2022-12-26T15:46:33;11.60;76.80
6672;DHT22;3372;48.690;12.362;2022-12-26T15:52:31;11.50;78.40
6672;DHT22;3372;48.690;12.362;2022-12-26T16:00:52;11.60;78.90
6672;DHT22;3372;48.690;12.362;2022-12-26T16:11:29;11.50;86.40
6672;DHT22;3372;48.690;12.362;2022-12-26T16:16:33;11.40;87.70
6672;DHT22;3372;48.690;12.362;2022-12-26T16:19:37;11.40;89.20
6672;DHT22;3372;48.690;12.362;2022-12-26T16:22:06;11.40;90.90
6672;DHT22;3372;48.690;12.362;2022-12-26T16:24:52;11.40;90.60
6672;DHT22;3372;48.690;12.362;2022-12-26T16:27:22;11.40;91.00
6672;DHT22;3372;48.690;12.362;2022-12-26T16:29:59;11.50;91.00
6672;DHT22;3372;48.690;12.362;2022-12-26T16:32:35;11.50;91.00
6672;DHT22;3372;48.690;12.362;2022-12-26T16:35:02;11.50;91.00
6672;DHT22;3372;48.690;12.362;2022-12-26T16:37:28;11.50;91.00
6672;DHT22;3372;48.690;12.362;2022-12-26T16:40:30;11.50;91.20
6672;DHT22;3372;48.690;12.362;2022-12-26T16:45:29;11.50;93.60
6672;DHT22;3372;48.690;12.362;2022-12-26T16:47:56;11.40;93.90
6672;DHT22;3372;48.690;12.362;2022-12-26T16:50:25;11.50;94.20
6672;DHT22;3372;48.690;12.362;2022-12-26T16:55:36;11.40;95.20
6672;DHT22;3372;48.690;12.362;2022-12-26T16:58:29;11.40;95.30
6672;DHT22;3372;48.690;12.362;2022-12-26T17:01:14;11.50;94.90
6672;DHT22;3372;48.690;12.362;2022-12-26T17:06:29;11.30;95.30
6672;DHT22;3372;48.690;12.362;2022-12-26T17:08:57;11.30;95.30
6672;DHT22;3372;48.690;12.362;2022-12-26T17:11:30;11.40;94.90
6672;DHT22;3372;48.690;12.362;2022-12-26T17:13:59;11.40;94.30
6672;DHT22;3372;48.690;12.362;2022-12-26T17:16:26;11.40;93.90
6672;DHT22;3372;48.690;12.362;2022-12-26T17:19:36;11.40;93.90
6672;DHT22;3372;48.690;12.362;2022-12-26T17:24:28;11.40;93.60
6672;DHT22;3372;48.690;12.362;2022-12-26T17:32:42;11.40;93.80
6672;DHT22;3372;48.690;12.362;2022-12-26T17:35:21;11.20;93.60
6672;DHT22;3372;48.690;12.362;2022-12-26T17:37:54;11.40;93.40
6672;DHT22;3372;48.690;12.362;2022-12-26T17:40:24;11.40;93.30
6672;DHT22;3372;48.690;12.362;2022-12-26T17:42:53;11.30;93.10
6672;DHT22;3372;48.690;12.362;2022-12-26T17:45:24;11.20;92.80
6672;DHT22;3372;48.690;12.362;2022-12-26T17:47:51;11.20;93.00
6672;DHT22;3372;48.690;12.362;2022-12-26T17:50:18;11.30;92.60
6672;DHT22;3372;48.690;12.362;2022-12-26T17:52:43;11.20;92.50
6672;DHT22;3372;48.690;12.362;2022-12-26T17:55:18;11.30;92.30
6672;DHT22;3372;48.690;12.362;2022-12-26T17:57:45;11.30;91.60
6672;DHT22;3372;48.690;12.362;2022-12-26T18:00:20;11.50;91.50
6672;DHT22;3372;48.690;12.362;2022-12-26T18:02:46;11.40;91.00
6672;DHT22;3372;48.690;12.362;2022-12-26T18:05:12;11.40;91.00
6672;DHT22;3372;48.690;12.362;2022-12-26T18:07:38;11.40;91.00
6672;DHT22;3372;48.690;12.362;2022-12-26T18:10:05;11.30;90.90
6672;DHT22;3372;48.690;12.362;2022-12-26T18:12:31;11.30;90.90
6672;DHT22;3372;48.690;12.362;2022-12-26T18:14:56;11.40;90.50
6672;DHT22;3372;48.690;12.362;2022-12-26T18:17:22;11.40;90.50
6672;DHT22;3372;48.690;12.362;2022-12-26T18:19:48;11.40;90.10
6672;DHT22;3372;48.690;12.362;2022-12-26T18:22:16;11.40;89.10
6672;DHT22;3372;48.690;12.362;2022-12-26T18:24:43;11.40;89.20
6672;DHT22;3372;48.690;12.362;2022-12-26T18:27:21;11.30;88.50
6672;DHT22;3372;48.690;12.362;2022-12-26T18:29:48;11.40;89.10
6672;DHT22;3372;48.690;12.362;2022-12-26T18:32:29;11.40;88.90
6672;DHT22;3372;48.690;12.362;2022-12-26T18:34:55;11.40;88.20
6672;DHT22;3372;48.690;12.362;2022-12-26T18:37:23;11.40;87.00
6672;DHT22;3372;48.690;12.362;2022-12-26T18:39:49;11.40;87.10
6672;DHT22;3372;48.690;12.362;2022-12-26T18:42:16;11.40;86.30
6672;DHT22;3372;48.690;12.362;2022-12-26T18:44:42;11.40;86.10
6672;DHT22;3372;48.690;12.362;2022-12-26T18:47:12;11.40;86.00
6672;DHT22;3372;48.690;12.362;2022-12-26T18:49:40;11.30;86.70
6672;DHT22;3372;48.690;12.362;2022-12-26T18:52:06;11.30;86.30
6672;DHT22;3372;48.690;12.362;2022-12-26T18:54:31;11.10;86.40
6672;DHT22;3372;48.690;12.362;2022-12-26T18:56:58;11.10;87.40
6672;DHT22;3372;48.690;12.362;2022-12-26T18:59:23;11.20;86.80
6672;DHT22;3372;48.690;12.362;2022-12-26T19:01:50;11.30;86.00
6672;DHT22;3372;48.690;12.362;2022-12-26T19:04:16;11.30;84.30
6672;DHT22;3372;48.690;12.362;2022-12-26T19:06:41;11.30;84.70
6672;DHT22;3372;48.690;12.362;2022-12-26T19:09:11;11.30;84.10
6672;DHT22;3372;48.690;12.362;2022-12-26T19:11:38;11.30;84.90
6672;DHT22;3372;48.690;12.362;2022-12-26T19:14:05;11.20;84.80
6672;DHT22;3372;48.690;12.362;2022-12-26T19:16:36;11.30;85.00
6672;DHT22;3372;48.690;12.362;2022-12-26T19:19:02;11.20;84.10
6672;DHT22;3372;48.690;12.362;2022-12-26T19:21:28;11.30;84.40
6672;DHT22;3372;48.690;12.362;2022-12-26T19:23:53;11.30;84.40
6672;DHT22;3372;48.690;12.362;2022-12-26T19:26:19;11.10;84.00
6672;DHT22;3372;48.690;12.362;2022-12-26T19:28:50;11.20;86.90
6672;DHT22;3372;48.690;12.362;2022-12-26T19:31:16;11.20;85.80
6672;DHT22;3372;48.690;12.362;2022-12-26T19:33:42;11.20;84.80
6672;DHT22;3372;48.690;12.362;2022-12-26T19:36:08;11.20;85.20
6672;DHT22;3372;48.690;12.362;2022-12-26T19:38:34;11.10;84.00
6672;DHT22;3372;48.690;12.362;2022-12-26T19:41:01;11.10;84.20
6672;DHT22;3372;48.690;12.362;2022-12-26T19:43:27;11.10;84.90
6672;DHT22;3372;48.690;12.362;2022-12-26T19:46:07;11.10;84.30